sensor_id;sensor_type;location;lat;lon;timestamp;pressure;altitude;pressure_sealevel;temperature;humidity
49723;BME280;43484;43.608;1.458;2023-02-16T00:00:10;100865.84;;;7.83;100.00
49723;BME280;43484;43.608;1.458;2023-02-16T00:02:40;100855.13;;;7.74;100.00
49723;BME280;43484;43.608;1.458;2023-02-16T00:05:37;100839.66;;;7.71;100.00
49723;BME280;43484;43.608;1.458;2023-02-16T00:08:03;100845.66;;;7.72;100.00
49723;BME280;43484;43.608;1.458;2023-02-16T00:10:32;100839.56;;;7.70;100.00
49723;BME280;43484;43.608;1.458;2023-02-16T00:13:00;100841.53;;;7.74;100.00
49723;BME280;43484;43.608;1.458;2023-02-16T00:15:46;100830.78;;;7.64;100.00
49723;BME280;43484;43.608;1.458;2023-02-16T00:18:20;100835.44;;;7.72;100.00
49723;BME280;43484;43.608;1.458;2023-02-16T00:20:47;100838.69;;;7.69;100.00
49723;BME280;43484;43.608;1.458;2023-02-16T00:23:15;100834.38;;;7.68;100.00
49723;BME280;43484;43.608;1.458;2023-02-16T00:25:41;100841.06;;;7.66;100.00
49723;BME280;43484;43.608;1.458;2023-02-16T00:28:16;100842.53;;;7.77;100.00
49723;BME280;43484;43.608;1.458;2023-02-16T00:30:44;100850.81;;;7.73;100.00
49723;BME280;43484;43.608;1.458;2023-02-16T00:33:14;100841.59;;;7.75;100.00
49723;BME280;43484;43.608;1.458;2023-02-16T00:35:41;100854.72;;;7.67;100.00
49723;BME280;43484;43.608;1.458;2023-02-16T00:38:08;100846.59;;;7.59;100.00
49723;BME280;43484;43.608;1.458;2023-02-16T00:40:34;100840.13;;;7.49;100.00
49723;BME280;43484;43.608;1.458;2023-02-16T00:43:01;100832.72;;;7.54;100.00
49723;BME280;43484;43.608;1.458;2023-02-16T00:45:29;100824.63;;;7.61;100.00
49723;BME280;43484;43.608;1.458;2023-02-16T00:47:59;100834.56;;;7.56;100.00
49723;BME280;43484;43.608;1.458;2023-02-16T00:50:31;100822.41;;;7.67;100.00
49723;BME280;43484;43.608;1.458;2023-02-16T00:52:58;100832.72;;;7.54;100.00
49723;BME280;43484;43.608;1.458;2023-02-16T00:55:28;100837.47;;;7.48;100.00
49723;BME280;43484;43.608;1.458;2023-02-16T01:00:34;100834.47;;;7.40;100.00
49723;BME280;43484;43.608;1.458;2023-02-16T01:03:05;100832.81;;;7.26;100.00
49723;BME280;43484;43.608;1.458;2023-02-16T01:05:33;100819.63;;;7.33;100.00
49723;BME280;43484;43.608;1.458;2023-02-16T01:08:00;100813.19;;;7.25;100.00
49723;BME280;43484;43.608;1.458;2023-02-16T01:10:47;100813.38;;;7.28;100.00
49723;BME280;43484;43.608;1.458;2023-02-16T01:13:40;100810.22;;;7.18;100.00
49723;BME280;43484;43.608;1.458;2023-02-16T01:16:11;100810.81;;;7.14;100.00
49723;BME280;43484;43.608;1.458;2023-02-16T01:18:39;100812.06;;;7.06;100.00
49723;BME280;43484;43.608;1.458;2023-02-16T01:21:06;100810.91;;;7.01;100.00
49723;BME280;43484;43.608;1.458;2023-02-16T01:23:32;100803.34;;;7.02;100.00
49723;BME280;43484;43.608;1.458;2023-02-16T01:25:59;100810.91;;;7.01;100.00
49723;BME280;43484;43.608;1.458;2023-02-16T01:28:26;100797.81;;;6.95;100.00
49723;BME280;43484;43.608;1.458;2023-02-16T01:30:52;100794.00;;;6.88;100.00
49723;BME280;43484;43.608;1.458;2023-02-16T01:33:19;100788.56;;;6.82;100.00
49723;BME280;43484;43.608;1.458;2023-02-16T01:35:53;100780.03;;;6.82;100.00
49723;BME280;43484;43.608;1.458;2023-02-16T01:38:23;100769.19;;;6.99;100.00
49723;BME280;43484;43.608;1.458;2023-02-16T01:40:56;100772.69;;;6.86;100.00
49723;BME280;43484;43.608;1.458;2023-02-16T01:43:30;100777.50;;;6.82;100.00
49723;BME280;43484;43.608;1.458;2023-02-16T01:46:10;100776.72;;;6.83;100.00
49723;BME280;43484;43.608;1.458;2023-02-16T01:48:37;100780.66;;;6.78;100.00
49723;BME280;43484;43.608;1.458;2023-02-16T01:51:13;100781.25;;;6.74;100.00
49723;BME280;43484;43.608;1.458;2023-02-16T01:53:51;100784.69;;;6.74;100.00
49723;BME280;43484;43.608;1.458;2023-02-16T02:02:03;100762.72;;;6.62;100.00
49723;BME280;43484;43.608;1.458;2023-02-16T02:04:36;100767.81;;;6.62;100.00
49723;BME280;43484;43.608;1.458;2023-02-16T02:07:39;100770.50;;;6.50;100.00
49723;BME280;43484;43.608;1.458;2023-02-16T02:10:13;100767.28;;;6.53;100.00
49723;BME280;43484;43.608;1.458;2023-02-16T02:12:50;100761.84;;;6.61;100.00
49723;BME280;43484;43.608;1.458;2023-02-16T02:15:22;100771.31;;;6.64;100.00
49723;BME280;43484;43.608;1.458;2023-02-16T02:17:49;100773.94;;;6.51;100.00
49723;BME280;43484;43.608;1.458;2023-02-16T02:37:24;100732.22;;;6.76;100.00
49723;BME280;43484;43.608;1.458;2023-02-16T02:40:10;100736.47;;;6.63;100.00
49723;BME280;43484;43.608;1.458;2023-02-16T02:42:57;100743.94;;;6.60;100.00
49723;BME280;43484;43.608;1.458;2023-02-16T02:45:33;100748.47;;;6.51;100.00
49723;BME280;43484;43.608;1.458;2023-02-16T02:48:01;100752.06;;;6.40;100.00
49723;BME280;43484;43.608;1.458;2023-02-16T02:50:36;100749.69;;;6.43;100.00
49723;BME280;43484;43.608;1.458;2023-02-16T02:53:10;100748.63;;;6.39;100.00
49723;BME280;43484;43.608;1.458;2023-02-16T02:55:41;100750.69;;;6.31;100.00
49723;BME280;43484;43.608;1.458;2023-02-16T02:58:28;100742.28;;;6.32;100.00
49723;BME280;43484;43.608;1.458;2023-02-16T03:01:41;100744.88;;;6.19;100.00
49723;BME280;43484;43.608;1.458;2023-02-16T03:04:11;100747.00;;;6.26;100.00
49723;BME280;43484;43.608;1.458;2023-02-16T03:06:44;100746.06;;;6.24;100.00
49723;BME280;43484;43.608;1.458;2023-02-16T03:09:14;100740.56;;;6.18;100.00
49723;BME280;43484;43.608;1.458;2023-02-16T03:11:42;100744.00;;;6.19;100.00
49723;BME280;43484;43.608;1.458;2023-02-16T03:14:35;100737.84;;;6.15;100.00
49723;BME280;43484;43.608;1.458;2023-02-16T03:17:07;100730.13;;;6.14;100.00
49723;BME280;43484;43.608;1.458;2023-02-16T03:19:55;100739.09;;;6.22;100.00
49723;BME280;43484;43.608;1.458;2023-02-16T03:22:40;100726.03;;;6.16;100.00
49723;BME280;43484;43.608;1.458;2023-02-16T03:25:31;100730.47;;;6.20;100.00
49723;BME280;43484;43.608;1.458;2023-02-16T03:28:19;100721.22;;;6.35;100.00
49723;BME280;43484;43.608;1.458;2023-02-16T03:31:07;100721.41;;;6.38;100.00
49723;BME280;43484;43.608;1.458;2023-02-16T03:33:35;100715.06;;;6.31;100.00
49723;BME280;43484;43.608;1.458;2023-02-16T03:36:03;100708.59;;;6.36;100.00
49723;BME280;43484;43.608;1.458;2023-02-16T03:38:30;100706.13;;;6.38;100.00
49723;BME280;43484;43.608;1.458;2023-02-16T03:40:58;100696.34;;;6.44;100.00
49723;BME280;43484;43.608;1.458;2023-02-16T03:43:26;100698.06;;;6.30;100.00
49723;BME280;43484;43.608;1.458;2023-02-16T03:45:53;100700.53;;;6.29;100.00
49723;BME280;43484;43.608;1.458;2023-02-16T03:48:20;100692.63;;;6.24;100.00
49723;BME280;43484;43.608;1.458;2023-02-16T03:50:47;100695.59;;;6.17;100.00
49723;BME280;43484;43.608;1.458;2023-02-16T03:53:13;100685.41;;;6.17;100.00
49723;BME280;43484;43.608;1.458;2023-02-16T03:55:45;100688.72;;;6.16;100.00
49723;BME280;43484;43.608;1.458;2023-02-16T03:58:15;100683.03;;;6.20;100.00
49723;BME280;43484;43.608;1.458;2023-02-16T04:00:42;100677.25;;;6.23;100.00
49723;BME280;43484;43.608;1.458;2023-02-16T04:03:09;100680.16;;;6.29;100.00
49723;BME280;43484;43.608;1.458;2023-02-16T04:05:37;100685.06;;;6.26;100.00
49723;BME280;43484;43.608;1.458;2023-02-16T04:08:05;100676.66;;;6.27;100.00
49723;BME280;43484;43.608;1.458;2023-02-16T04:10:32;100681.06;;;6.29;100.00
49723;BME280;43484;43.608;1.458;2023-02-16T04:12:58;100681.06;;;6.29;100.00
49723;BME280;43484;43.608;1.458;2023-02-16T04:15:27;100685.94;;;6.26;100.00
49723;BME280;43484;43.608;1.458;2023-02-16T04:17:54;100690.25;;;6.27;100.00
49723;BME280;43484;43.608;1.458;2023-02-16T04:20:27;100679.78;;;6.23;100.00
49723;BME280;43484;43.608;1.458;2023-02-16T04:22:54;100677.44;;;6.26;100.00
49723;BME280;43484;43.608;1.458;2023-02-16T04:25:21;100671.81;;;6.31;100.00
49723;BME280;43484;43.608;1.458;2023-02-16T04:27:48;100683.38;;;6.26;100.00
49723;BME280;43484;43.608;1.458;2023-02-16T04:30:17;100675.59;;;6.38;100.00
49723;BME280;43484;43.608;1.458;2023-02-16T04:32:45;100669.47;;;6.34;100.00
49723;BME280;43484;43.608;1.458;2023-02-16T04:35:11;100680.00;;;6.41;100.00
49723;BME280;43484;43.608;1.458;2023-02-16T04:37:38;100686.16;;;6.29;100.00
49723;BME280;43484;43.608;1.458;2023-02-16T04:40:07;100678.50;;;6.29;100.00
49723;BME280;43484;43.608;1.458;2023-02-16T04:42:34;100685.75;;;6.23;100.00
49723;BME280;43484;43.608;1.458;2023-02-16T04:45:00;100684.09;;;6.24;100.00
49723;BME280;43484;43.608;1.458;2023-02-16T04:47:27;100681.66;;;6.25;100.00
49723;BME280;43484;43.608;1.458;2023-02-16T04:49:54;100681.06;;;6.29;100.00
49723;BME280;43484;43.608;1.458;2023-02-16T04:52:20;100679.09;;;6.25;100.00
49723;BME280;43484;43.608;1.458;2023-02-16T04:54:47;100678.31;;;6.26;100.00
49723;BME280;43484;43.608;1.458;2023-02-16T04:57:14;100685.00;;;6.24;100.00
49723;BME280;43484;43.608;1.458;2023-02-16T04:59:41;100680.00;;;6.26;100.00
49723;BME280;43484;43.608;1.458;2023-02-16T05:02:08;100678.22;;;6.25;100.00
49723;BME280;43484;43.608;1.458;2023-02-16T05:04:34;100679.59;;;6.20;100.00
49723;BME280;43484;43.608;1.458;2023-02-16T05:07:01;100674.59;;;6.07;100.00
49723;BME280;43484;43.608;1.458;2023-02-16T05:09:27;100685.41;;;6.17;100.00
49723;BME280;43484;43.608;1.458;2023-02-16T05:11:54;100687.31;;;6.21;100.00
49723;BME280;43484;43.608;1.458;2023-02-16T05:14:39;100681.31;;;6.34;100.00
49723;BME280;43484;43.608;1.458;2023-02-16T05:17:21;100692.63;;;6.24;100.00
49723;BME280;43484;43.608;1.458;2023-02-16T05:19:55;100687.53;;;6.24;100.00
49723;BME280;43484;43.608;1.458;2023-02-16T05:22:22;100692.25;;;6.33;100.00
49723;BME280;43484;43.608;1.458;2023-02-16T05:24:50;100691.81;;;6.25;100.00
49723;BME280;43484;43.608;1.458;2023-02-16T05:27:26;100691.00;;;6.12;100.00
49723;BME280;43484;43.608;1.458;2023-02-16T05:29:53;100688.13;;;6.20;100.00
49723;BME280;43484;43.608;1.458;2023-02-16T05:32:20;100683.59;;;6.29;100.00
49723;BME280;43484;43.608;1.458;2023-02-16T05:34:47;100683.31;;;6.25;100.00
49723;BME280;43484;43.608;1.458;2023-02-16T05:37:15;100684.44;;;6.15;100.00
49723;BME280;43484;43.608;1.458;2023-02-16T05:39:42;100691.50;;;6.06;100.00
49723;BME280;43484;43.608;1.458;2023-02-16T05:42:09;100694.69;;;6.17;100.00
49723;BME280;43484;43.608;1.458;2023-02-16T05:44:36;100698.72;;;6.13;100.00
49723;BME280;43484;43.608;1.458;2023-02-16T05:47:03;100694.25;;;6.09;100.00
49723;BME280;43484;43.608;1.458;2023-02-16T05:49:30;100689.69;;;6.18;100.00
49723;BME280;43484;43.608;1.458;2023-02-16T05:51:56;100691.34;;;6.18;100.00
49723;BME280;43484;43.608;1.458;2023-02-16T05:54:23;100690.59;;;6.19;100.00
49723;BME280;43484;43.608;1.458;2023-02-16T05:56:51;100685.31;;;6.16;100.00
49723;BME280;43484;43.608;1.458;2023-02-16T05:59:18;100688.94;;;6.19;100.00
49723;BME280;43484;43.608;1.458;2023-02-16T06:01:44;100692.50;;;6.23;100.00
49723;BME280;43484;43.608;1.458;2023-02-16T06:04:16;100696.72;;;6.22;100.00
49723;BME280;43484;43.608;1.458;2023-02-16T06:06:43;100702.34;;;6.31;100.00
49723;BME280;43484;43.608;1.458;2023-02-16T06:09:10;100700.59;;;6.16;100.00
49723;BME280;43484;43.608;1.458;2023-02-16T06:11:37;100699.47;;;6.25;100.00
49723;BME280;43484;43.608;1.458;2023-02-16T06:14:08;100700.03;;;6.21;100.00
49723;BME280;43484;43.608;1.458;2023-02-16T06:16:36;100697.59;;;6.23;100.00
49723;BME280;43484;43.608;1.458;2023-02-16T06:19:04;100699.19;;;6.21;100.00
49723;BME280;43484;43.608;1.458;2023-02-16T06:21:31;100705.34;;;6.24;100.00
49723;BME280;43484;43.608;1.458;2023-02-16T06:23:58;100711.94;;;6.08;100.00
49723;BME280;43484;43.608;1.458;2023-02-16T06:26:25;100712.06;;;6.09;100.00
49723;BME280;43484;43.608;1.458;2023-02-16T06:28:52;100710.91;;;6.04;100.00
49723;BME280;43484;43.608;1.458;2023-02-16T06:31:19;100709.50;;;6.09;100.00
49723;BME280;43484;43.608;1.458;2023-02-16T06:33:46;100712.41;;;6.15;100.00
49723;BME280;43484;43.608;1.458;2023-02-16T06:36:13;100713.03;;;5.98;100.00
49723;BME280;43484;43.608;1.458;2023-02-16T06:38:40;100718.94;;;5.97;100.00
49723;BME280;43484;43.608;1.458;2023-02-16T06:41:07;100714.03;;;6.00;100.00
49723;BME280;43484;43.608;1.458;2023-02-16T06:43:34;100715.38;;;6.08;100.00
49723;BME280;43484;43.608;1.458;2023-02-16T06:46:01;100714.19;;;6.03;100.00
49723;BME280;43484;43.608;1.458;2023-02-16T06:48:28;100721.16;;;6.06;100.00
49723;BME280;43484;43.608;1.458;2023-02-16T06:50:55;100722.47;;;5.86;100.00
49723;BME280;43484;43.608;1.458;2023-02-16T06:53:21;100719.16;;;5.87;100.00
49723;BME280;43484;43.608;1.458;2023-02-16T06:55:49;100721.06;;;5.91;100.00
49723;BME280;43484;43.608;1.458;2023-02-16T06:58:16;100722.28;;;5.83;100.00
49723;BME280;43484;43.608;1.458;2023-02-16T07:00:42;100718.34;;;5.88;100.00
49723;BME280;43484;43.608;1.458;2023-02-16T07:03:09;100725.97;;;5.88;100.00
49723;BME280;43484;43.608;1.458;2023-02-16T07:05:36;100723.63;;;6.04;100.00
49723;BME280;43484;43.608;1.458;2023-02-16T07:08:03;100732.72;;;6.01;100.00
49723;BME280;43484;43.608;1.458;2023-02-16T07:10:30;100745.75;;;5.92;100.00
49723;BME280;43484;43.608;1.458;2023-02-16T07:13:14;100753.56;;;5.82;100.00
49723;BME280;43484;43.608;1.458;2023-02-16T07:15:40;100753.25;;;5.78;100.00
49723;BME280;43484;43.608;1.458;2023-02-16T07:18:07;100745.25;;;5.85;100.00
49723;BME280;43484;43.608;1.458;2023-02-16T07:20:33;100758.94;;;5.87;100.00
49723;BME280;43484;43.608;1.458;2023-02-16T07:23:00;100753.84;;;5.87;100.00
49723;BME280;43484;43.608;1.458;2023-02-16T07:25:27;100763.44;;;5.91;100.00
49723;BME280;43484;43.608;1.458;2023-02-16T07:27:53;100758.16;;;5.88;100.00
49723;BME280;43484;43.608;1.458;2023-02-16T07:30:20;100760.16;;;6.06;100.00
49723;BME280;43484;43.608;1.458;2023-02-16T07:32:48;100760.19;;;5.93;100.00
49723;BME280;43484;43.608;1.458;2023-02-16T07:35:14;100752.34;;;6.03;100.00
49723;BME280;43484;43.608;1.458;2023-02-16T07:37:41;100761.34;;;5.98;100.00
49723;BME280;43484;43.608;1.458;2023-02-16T07:40:08;100768.81;;;5.95;100.00
49723;BME280;43484;43.608;1.458;2023-02-16T07:42:34;100774.47;;;5.91;100.00
49723;BME280;43484;43.608;1.458;2023-02-16T07:45:01;100778.88;;;5.94;100.00
49723;BME280;43484;43.608;1.458;2023-02-16T07:47:28;100779.16;;;5.98;100.00
49723;BME280;43484;43.608;1.458;2023-02-16T07:49:54;100783.84;;;6.05;100.00
49723;BME280;43484;43.608;1.458;2023-02-16T07:52:21;100797.03;;;6.13;100.00
49723;BME280;43484;43.608;1.458;2023-02-16T07:54:48;100798.53;;;5.96;100.00
49723;BME280;43484;43.608;1.458;2023-02-16T07:57:14;100815.13;;;5.78;100.00
49723;BME280;43484;43.608;1.458;2023-02-16T07:59:41;100810.53;;;5.73;100.00
49723;BME280;43484;43.608;1.458;2023-02-16T08:02:14;100806.44;;;5.88;100.00
49723;BME280;43484;43.608;1.458;2023-02-16T08:04:41;100811.06;;;5.93;100.00
49723;BME280;43484;43.608;1.458;2023-02-16T08:07:12;100809.19;;;6.04;100.00
49723;BME280;43484;43.608;1.458;2023-02-16T08:09:39;100812.59;;;6.17;100.00
49723;BME280;43484;43.608;1.458;2023-02-16T08:12:10;100809.84;;;6.27;100.00
49723;BME280;43484;43.608;1.458;2023-02-16T08:14:37;100818.13;;;6.25;100.00
49723;BME280;43484;43.608;1.458;2023-02-16T08:17:05;100829.78;;;6.34;100.00
49723;BME280;43484;43.608;1.458;2023-02-16T08:19:32;100820.31;;;6.19;100.00
49723;BME280;43484;43.608;1.458;2023-02-16T08:22:00;100823.41;;;6.28;100.00
49723;BME280;43484;43.608;1.458;2023-02-16T08:24:28;100831.72;;;6.38;100.00
49723;BME280;43484;43.608;1.458;2023-02-16T08:26:55;100835.06;;;6.38;100.00
49723;BME280;43484;43.608;1.458;2023-02-16T08:29:22;100852.56;;;6.33;100.00
49723;BME280;43484;43.608;1.458;2023-02-16T08:31:49;100856.03;;;6.07;100.00
49723;BME280;43484;43.608;1.458;2023-02-16T08:34:18;100855.84;;;6.17;100.00
49723;BME280;43484;43.608;1.458;2023-02-16T08:36:46;100871.69;;;6.13;100.00
49723;BME280;43484;43.608;1.458;2023-02-16T08:39:19;100866.09;;;6.32;100.00
49723;BME280;43484;43.608;1.458;2023-02-16T08:41:47;100873.03;;;6.34;100.00
49723;BME280;43484;43.608;1.458;2023-02-16T08:44:15;100880.56;;;6.33;100.00
49723;BME280;43484;43.608;1.458;2023-02-16T08:46:45;100880.97;;;6.39;100.00
49723;BME280;43484;43.608;1.458;2023-02-16T08:49:14;100889.22;;;6.09;100.00
49723;BME280;43484;43.608;1.458;2023-02-16T08:51:45;100890.66;;;6.05;100.00
49723;BME280;43484;43.608;1.458;2023-02-16T08:54:19;100891.41;;;5.78;100.00
49723;BME280;43484;43.608;1.458;2023-02-16T08:56:46;100898.56;;;5.71;100.00
49723;BME280;43484;43.608;1.458;2023-02-16T08:59:14;100890.69;;;5.92;100.00
49723;BME280;43484;43.608;1.458;2023-02-16T09:01:41;100893.25;;;5.68;100.00
49723;BME280;43484;43.608;1.458;2023-02-16T09:04:08;100893.84;;;5.77;100.00
49723;BME280;43484;43.608;1.458;2023-02-16T09:06:36;100897.59;;;6.08;100.00
49723;BME280;43484;43.608;1.458;2023-02-16T09:09:04;100910.03;;;6.16;100.00
49723;BME280;43484;43.608;1.458;2023-02-16T09:11:31;100918.34;;;6.14;100.00
49723;BME280;43484;43.608;1.458;2023-02-16T09:13:59;100921.38;;;6.21;100.00
49723;BME280;43484;43.608;1.458;2023-02-16T09:16:26;100940.34;;;6.26;100.00
49723;BME280;43484;43.608;1.458;2023-02-16T09:18:55;100953.28;;;6.43;100.00
49723;BME280;43484;43.608;1.458;2023-02-16T09:21:24;100958.94;;;6.52;100.00
49723;BME280;43484;43.608;1.458;2023-02-16T09:23:53;100968.41;;;6.67;100.00
49723;BME280;43484;43.608;1.458;2023-02-16T09:26:22;100971.03;;;6.82;100.00
49723;BME280;43484;43.608;1.458;2023-02-16T09:28:50;100982.38;;;7.00;100.00
49723;BME280;43484;43.608;1.458;2023-02-16T09:31:20;101006.00;;;6.84;100.00
49723;BME280;43484;43.608;1.458;2023-02-16T09:33:56;101009.91;;;6.92;100.00
49723;BME280;43484;43.608;1.458;2023-02-16T09:36:23;101019.19;;;6.92;100.00
49723;BME280;43484;43.608;1.458;2023-02-16T09:38:50;101030.78;;;6.87;100.00
49723;BME280;43484;43.608;1.458;2023-02-16T09:46:23;101041.94;;;6.89;100.00
49723;BME280;43484;43.608;1.458;2023-02-16T09:48:51;101049.47;;;7.00;100.00
49723;BME280;43484;43.608;1.458;2023-02-16T09:51:22;101052.63;;;6.83;100.00
49723;BME280;43484;43.608;1.458;2023-02-16T09:54:09;101057.63;;;6.82;100.00
49723;BME280;43484;43.608;1.458;2023-02-16T09:56:55;101040.69;;;6.69;100.00
49723;BME280;43484;43.608;1.458;2023-02-16T09:59:40;101042.66;;;6.86;100.00
49723;BME280;43484;43.608;1.458;2023-02-16T10:05:10;101011.41;;;6.76;100.00
49723;BME280;43484;43.608;1.458;2023-02-16T10:10:21;100995.13;;;6.87;100.00
49723;BME280;43484;43.608;1.458;2023-02-16T10:12:55;100990.97;;;7.02;100.00
49723;BME280;43484;43.608;1.458;2023-02-16T10:15:27;100986.19;;;7.06;100.00
49723;BME280;43484;43.608;1.458;2023-02-16T10:18:36;100989.34;;;7.17;100.00
49723;BME280;43484;43.608;1.458;2023-02-16T10:21:06;100991.88;;;7.30;100.00
49723;BME280;43484;43.608;1.458;2023-02-16T10:23:55;101003.81;;;7.31;100.00
49723;BME280;43484;43.608;1.458;2023-02-16T10:26:33;101012.47;;;7.33;100.00
49723;BME280;43484;43.608;1.458;2023-02-16T10:29:15;101027.50;;;7.43;100.00
49723;BME280;43484;43.608;1.458;2023-02-16T10:32:20;101034.63;;;7.48;100.00
49723;BME280;43484;43.608;1.458;2023-02-16T10:38:09;101061.50;;;7.56;100.00
49723;BME280;43484;43.608;1.458;2023-02-16T10:40:20;101065.56;;;7.68;100.00
49723;BME280;43484;43.608;1.458;2023-02-16T10:43:05;101077.50;;;7.68;100.00
49723;BME280;43484;43.608;1.458;2023-02-16T10:48:11;101084.56;;;7.73;100.00
49723;BME280;43484;43.608;1.458;2023-02-16T10:50:45;101090.91;;;7.79;100.00
49723;BME280;43484;43.608;1.458;2023-02-16T10:53:40;101099.22;;;7.90;100.00
49723;BME280;43484;43.608;1.458;2023-02-16T10:58:58;101097.91;;;7.96;100.00
49723;BME280;43484;43.608;1.458;2023-02-16T11:01:37;101109.19;;;8.00;100.00
49723;BME280;43484;43.608;1.458;2023-02-16T11:04:05;101115.19;;;8.15;100.00
49723;BME280;43484;43.608;1.458;2023-02-16T11:06:32;101114.47;;;8.17;100.00
49723;BME280;43484;43.608;1.458;2023-02-16T11:09:02;101122.34;;;8.20;100.00
49723;BME280;43484;43.608;1.458;2023-02-16T11:11:38;101121.31;;;8.31;100.00
49723;BME280;43484;43.608;1.458;2023-02-16T11:14:23;101127.41;;;8.62;100.00
49723;BME280;43484;43.608;1.458;2023-02-16T11:17:09;101152.06;;;8.76;100.00
49723;BME280;43484;43.608;1.458;2023-02-16T11:19:39;101165.63;;;8.90;100.00
49723;BME280;43484;43.608;1.458;2023-02-16T11:22:23;101181.38;;;8.98;100.00
49723;BME280;43484;43.608;1.458;2023-02-16T11:24:51;101201.03;;;9.13;100.00
49723;BME280;43484;43.608;1.458;2023-02-16T11:27:20;101223.75;;;9.38;100.00
49723;BME280;43484;43.608;1.458;2023-02-16T11:29:48;101240.34;;;9.44;100.00
49723;BME280;43484;43.608;1.458;2023-02-16T11:32:17;101250.91;;;9.50;100.00
49723;BME280;43484;43.608;1.458;2023-02-16T11:34:53;101270.63;;;9.53;100.00
49723;BME280;43484;43.608;1.458;2023-02-16T11:37:32;101268.88;;;9.52;100.00
49723;BME280;43484;43.608;1.458;2023-02-16T11:40:03;101272.59;;;9.57;100.00
49723;BME280;43484;43.608;1.458;2023-02-16T11:42:40;101289.88;;;9.61;100.00
49723;BME280;43484;43.608;1.458;2023-02-16T11:45:23;101284.16;;;9.50;100.00
49723;BME280;43484;43.608;1.458;2023-02-16T11:47:53;101286.44;;;9.60;100.00
49723;BME280;43484;43.608;1.458;2023-02-16T11:50:26;101295.16;;;9.64;100.00
49723;BME280;43484;43.608;1.458;2023-02-16T11:52:57;101292.56;;;9.78;100.00
49723;BME280;43484;43.608;1.458;2023-02-16T11:55:44;101289.63;;;9.87;100.00
49723;BME280;43484;43.608;1.458;2023-02-16T11:58:25;101287.59;;;9.96;100.00
49723;BME280;43484;43.608;1.458;2023-02-16T12:12:02;101268.06;;;10.29;100.00
49723;BME280;43484;43.608;1.458;2023-02-16T12:23:07;101265.53;;;10.45;100.00
49723;BME280;43484;43.608;1.458;2023-02-16T12:25:49;101259.19;;;10.54;100.00
49723;BME280;43484;43.608;1.458;2023-02-16T12:34:27;101246.19;;;10.83;100.00
49723;BME280;43484;43.608;1.458;2023-02-16T12:42:16;101242.59;;;11.13;100.00
49723;BME280;43484;43.608;1.458;2023-02-16T12:44:53;101237.16;;;11.07;100.00
49723;BME280;43484;43.608;1.458;2023-02-16T12:47:28;101228.47;;;11.39;100.00
49723;BME280;43484;43.608;1.458;2023-02-16T12:50:02;101231.16;;;11.24;100.00
49723;BME280;43484;43.608;1.458;2023-02-16T12:58:09;101222.31;;;11.18;100.00
49723;BME280;43484;43.608;1.458;2023-02-16T13:00:47;101225.47;;;11.30;100.00
49723;BME280;43484;43.608;1.458;2023-02-16T13:03:36;101220.47;;;11.33;100.00
49723;BME280;43484;43.608;1.458;2023-02-16T13:08:49;101210.81;;;11.45;100.00
49723;BME280;43484;43.608;1.458;2023-02-16T13:11:21;101208.00;;;11.76;100.00
49723;BME280;43484;43.608;1.458;2023-02-16T13:13:51;101201.19;;;11.76;100.00
49723;BME280;43484;43.608;1.458;2023-02-16T13:16:39;101196.44;;;11.84;100.00
49723;BME280;43484;43.608;1.458;2023-02-16T13:19:11;101189.69;;;12.05;100.00
49723;BME280;43484;43.608;1.458;2023-02-16T13:21:56;101192.28;;;12.24;100.00
49723;BME280;43484;43.608;1.458;2023-02-16T13:35:42;101179.31;;;12.41;100.00
49723;BME280;43484;43.608;1.458;2023-02-16T13:43:32;101177.41;;;12.37;100.00
49723;BME280;43484;43.608;1.458;2023-02-16T13:46:04;101165.59;;;12.41;100.00
49723;BME280;43484;43.608;1.458;2023-02-16T13:48:45;101170.84;;;12.63;100.00
49723;BME280;43484;43.608;1.458;2023-02-16T13:51:18;101162.81;;;12.76;100.00
49723;BME280;43484;43.608;1.458;2023-02-16T13:54:01;101159.00;;;12.87;100.00
49723;BME280;43484;43.608;1.458;2023-02-16T13:58:58;101154.41;;;12.59;100.00
49723;BME280;43484;43.608;1.458;2023-02-16T14:01:33;101152.91;;;12.44;100.00
49723;BME280;43484;43.608;1.458;2023-02-16T14:04:02;101158.31;;;12.71;100.00
49723;BME280;43484;43.608;1.458;2023-02-16T14:06:33;101150.78;;;12.75;100.00
49723;BME280;43484;43.608;1.458;2023-02-16T14:16:50;101145.25;;;13.06;100.00
49723;BME280;43484;43.608;1.458;2023-02-16T14:19:23;101145.19;;;13.04;100.00
49723;BME280;43484;43.608;1.458;2023-02-16T14:21:51;101148.88;;;13.11;100.00
49723;BME280;43484;43.608;1.458;2023-02-16T14:27:02;101145.59;;;12.94;100.00
49723;BME280;43484;43.608;1.458;2023-02-16T14:29:52;101141.09;;;13.09;100.00
49723;BME280;43484;43.608;1.458;2023-02-16T14:32:25;101146.47;;;13.15;100.00
49723;BME280;43484;43.608;1.458;2023-02-16T14:35:14;101144.88;;;13.39;100.00
49723;BME280;43484;43.608;1.458;2023-02-16T14:40:21;101143.59;;;13.50;100.00
49723;BME280;43484;43.608;1.458;2023-02-16T14:42:57;101145.41;;;13.53;100.00
49723;BME280;43484;43.608;1.458;2023-02-16T14:53:57;101129.69;;;13.03;100.00
49723;BME280;43484;43.608;1.458;2023-02-16T14:56:51;101129.16;;;13.11;100.00
49723;BME280;43484;43.608;1.458;2023-02-16T15:04:49;101129.19;;;13.33;100.00
49723;BME280;43484;43.608;1.458;2023-02-16T15:07:16;101129.28;;;13.36;100.00
49723;BME280;43484;43.608;1.458;2023-02-16T15:09:44;101126.88;;;13.39;100.00
49723;BME280;43484;43.608;1.458;2023-02-16T15:12:13;101126.19;;;13.67;100.00
49723;BME280;43484;43.608;1.458;2023-02-16T15:15:01;101127.75;;;13.85;100.00
49723;BME280;43484;43.608;1.458;2023-02-16T15:17:39;101125.38;;;13.92;100.00
49723;BME280;43484;43.608;1.458;2023-02-16T15:22:57;101130.16;;;13.81;100.00